Time;durP1;ratioP1;P1;durP2;ratioP2;P2;SDS_P1;SDS_P2;PMS_P1;PMS_P2;Temp;Humidity;BMP_temperature;BMP_pressure;BME280_temperature;BME280_humidity;BME280_pressure;Samples;Min_cycle;Max_cycle;Signal;HPM_P1;HPM_P2
2022/09/09 00:00:40;;;;;;;3.75;1.30;;;;;;;15.75;87.88;95719.78;5007030;28;20032;-58
2022/09/09 00:03:19;;;;;;;1.48;1.20;;;;;;;15.55;89.56;95712.22;5007048;28;20042;-59
2022/09/09 00:06:19;;;;;;;6.03;1.50;;;;;;;15.47;90.68;95717.56;5004853;28;20027;-58
2022/09/09 00:09:12;;;;;;;2.58;1.50;;;;;;;15.42;91.59;95717.25;5002857;28;20069;-58
2022/09/09 00:12:03;;;;;;;1.42;1.33;;;;;;;15.40;90.51;95719.25;5001743;28;20069;-58
2022/09/09 00:14:39;;;;;;;1.30;1.27;;;;;;;15.40;90.50;95716.59;5005698;28;20042;-58
2022/09/09 00:17:12;;;;;;;3.80;1.60;;;;;;;15.42;90.02;95719.91;5001349;28;20026;-58
2022/09/09 00:19:50;;;;;;;2.40;1.42;;;;;;;15.45;89.21;95717.75;5007057;28;20057;-59
2022/09/09 00:22:19;;;;;;;1.98;1.67;;;;;;;15.49;89.05;95720.88;5004086;28;20113;-58
2022/09/09 00:24:53;;;;;;;1.25;1.20;;;;;;;15.43;89.19;95719.75;4997477;28;20030;-58
2022/09/09 00:27:41;;;;;;;0.95;0.95;;;;;;;15.42;88.68;95736.66;5008972;28;20038;-58
2022/09/09 00:30:22;;;;;;;7.05;1.50;;;;;;;15.38;89.35;95731.84;5003564;28;20030;-58
2022/09/09 00:32:49;;;;;;;4.10;1.58;;;;;;;15.39;88.47;95730.84;5003506;28;20053;-58
2022/09/09 00:35:22;;;;;;;8.90;1.40;;;;;;;15.38;89.37;95743.31;5002430;28;20057;-57
2022/09/09 00:37:49;;;;;;;3.58;1.15;;;;;;;15.43;90.06;95740.13;5003411;28;20030;-58
2022/09/09 00:40:22;;;;;;;2.90;1.20;;;;;;;15.46;89.70;95735.31;5003462;28;20030;-58
2022/09/09 00:42:54;;;;;;;8.10;1.45;;;;;;;15.46;90.63;95732.66;5000819;28;20060;-59
2022/09/09 00:45:25;;;;;;;2.10;1.30;;;;;;;15.47;90.17;95736.13;5005578;28;20088;-58
2022/09/09 00:47:52;;;;;;;2.30;1.40;;;;;;;15.51;90.43;95734.81;5004046;28;20443;-58
2022/09/09 00:50:40;;;;;;;9.43;1.42;;;;;;;15.51;92.75;95729.50;5005808;28;20037;-58
2022/09/09 00:53:14;;;;;;;3.45;1.40;;;;;;;15.43;94.96;95729.50;5005976;28;20052;-59
2022/09/09 00:55:53;;;;;;;5.13;1.35;;;;;;;15.41;94.88;95731.50;4997971;28;20089;-59
2022/09/09 00:58:18;;;;;;;2.58;1.38;;;;;;;15.38;96.12;95737.16;5003093;28;20117;-58
2022/09/09 01:00:49;;;;;;;1.40;1.33;;;;;;;15.31;96.83;95731.72;5003633;28;20105;-58
2022/09/09 01:03:24;;;;;;;2.08;1.30;;;;;;;15.30;96.74;95738.00;5006384;28;20026;-58
2022/09/09 01:05:58;;;;;;;2.17;1.40;;;;;;;15.35;96.32;95746.28;4997237;28;20026;-58
2022/09/09 01:08:57;;;;;;;9.93;1.90;;;;;;;15.52;94.65;95746.22;5004832;28;20053;-58
2022/09/09 01:11:34;;;;;;;3.53;1.52;;;;;;;15.42;95.04;95744.63;5000045;28;20061;-58
2022/09/09 01:14:32;;;;;;;4.25;1.30;;;;;;;15.39;96.06;95752.91;5003925;28;20026;-58
2022/09/09 01:17:08;;;;;;;6.43;1.60;;;;;;;15.36;98.12;95742.63;4996472;28;20046;-58
2022/09/09 01:20:08;;;;;;;5.47;1.35;;;;;;;15.30;98.94;95735.34;5003908;28;20037;-58
2022/09/09 01:22:37;;;;;;;3.22;1.80;;;;;;;15.27;97.61;95739.19;5000316;28;20049;-59
2022/09/09 01:25:39;;;;;;;2.83;1.42;;;;;;;15.24;98.45;95736.84;5000849;28;20025;-59
2022/09/09 01:28:10;;;;;;;3.42;1.63;;;;;;;15.26;96.46;95740.19;5002064;28;20038;-58
2022/09/09 01:30:40;;;;;;;3.13;1.42;;;;;;;15.28;96.27;95735.53;5001352;28;20034;-59
2022/09/09 01:33:09;;;;;;;5.30;1.40;;;;;;;15.29;96.21;95741.66;4999775;28;20623;-58
2022/09/09 01:35:45;;;;;;;4.50;1.40;;;;;;;15.29;96.42;95741.66;5005748;28;20029;-58
2022/09/09 01:38:10;;;;;;;1.58;1.42;;;;;;;15.20;97.88;95738.19;5005887;28;20042;-59
2022/09/09 01:40:36;;;;;;;2.63;1.50;;;;;;;15.16;98.63;95735.09;5000586;28;20600;-59
2022/09/09 01:43:02;;;;;;;2.78;1.40;;;;;;;15.23;97.94;95723.78;5004020;28;20029;-58
2022/09/09 01:45:28;;;;;;;2.38;1.40;;;;;;;15.21;98.84;95733.75;5003747;28;20034;-58
2022/09/09 01:47:54;;;;;;;1.77;1.55;;;;;;;15.19;99.36;95728.59;5003995;28;20044;-58
2022/09/09 01:50:20;;;;;;;6.03;1.52;;;;;;;15.19;98.62;95723.28;5006017;28;20026;-58
2022/09/09 01:52:50;;;;;;;5.90;1.65;;;;;;;15.21;98.43;95720.47;5002257;28;20038;-58
2022/09/09 01:55:15;;;;;;;2.05;1.30;;;;;;;15.16;98.73;95724.47;5001589;28;20531;-58
2022/09/09 01:57:55;;;;;;;3.65;1.70;;;;;;;15.13;99.87;95722.13;5003738;28;20097;-58
2022/09/09 02:00:21;;;;;;;2.80;1.30;;;;;;;15.05;100.00;95714.22;5007536;28;20124;-58
2022/09/09 02:02:52;;;;;;;2.95;1.40;;;;;;;14.99;100.00;95721.00;5001603;28;20576;-58
2022/09/09 02:05:38;;;;;;;5.97;1.83;;;;;;;14.90;100.00;95722.84;5002668;28;20084;-58
2022/09/09 02:08:07;;;;;;;4.60;1.80;;;;;;;14.82;100.00;95733.47;5004042;28;20525;-58
2022/09/09 02:10:42;;;;;;;4.18;1.90;;;;;;;14.75;100.00;95724.53;5004508;28;20156;-59
2022/09/09 02:13:12;;;;;;;5.50;1.50;;;;;;;14.76;100.00;95720.91;4999505;28;20034;-58
2022/09/09 02:15:56;;;;;;;3.03;1.40;;;;;;;14.78;99.34;95718.91;5000668;28;20393;-58
2022/09/09 02:18:30;;;;;;;3.47;1.48;;;;;;;14.75;99.86;95714.75;5000186;28;20519;-58
2022/09/09 02:20:58;;;;;;;6.13;1.75;;;;;;;14.73;99.52;95715.94;5007628;28;20057;-58
2022/09/09 02:23:23;;;;;;;2.13;1.60;;;;;;;14.71;98.78;95717.94;5003881;28;20048;-58
2022/09/09 02:25:52;;;;;;;4.57;1.60;;;;;;;14.73;97.77;95715.94;5005158;28;20101;-59
2022/09/09 02:28:21;;;;;;;2.10;1.58;;;;;;;14.70;97.87;95716.22;5003080;28;20034;-59
2022/09/09 02:30:54;;;;;;;2.47;1.40;;;;;;;14.61;99.54;95718.88;5004793;28;20061;-59
2022/09/09 02:33:24;;;;;;;2.67;1.42;;;;;;;14.54;98.52;95723.19;4997804;28;20100;-58
2022/09/09 02:35:52;;;;;;;4.15;1.80;;;;;;;14.51;98.51;95722.69;5005003;28;20475;-58
2022/09/09 02:38:19;;;;;;;1.95;1.33;;;;;;;14.46;99.94;95717.88;4999701;28;20046;-58
2022/09/09 02:40:45;;;;;;;2.28;1.42;;;;;;;14.42;100.00;95719.22;5005800;28;20968;-58
2022/09/09 02:43:10;;;;;;;4.28;1.75;;;;;;;14.36;100.00;95720.69;5002750;28;20113;-58
2022/09/09 02:46:02;;;;;;;3.58;1.58;;;;;;;14.27;99.58;95716.41;4996863;28;20050;-58
2022/09/09 02:48:46;;;;;;;4.15;1.60;;;;;;;14.26;100.00;95717.38;4988175;28;20042;-58
2022/09/09 02:51:20;;;;;;;1.95;1.30;;;;;;;14.15;100.00;95719.38;5001835;28;20390;-58
2022/09/09 02:53:57;;;;;;;1.52;1.35;;;;;;;14.06;100.00;95715.03;5002770;28;20050;-59
2022/09/09 02:56:28;;;;;;;5.47;1.55;;;;;;;14.01;100.00;95722.66;4998008;28;20497;-59
2022/09/09 02:58:54;;;;;;;1.55;1.45;;;;;;;14.01;100.00;95712.88;5007330;28;20516;-58
2022/09/09 03:01:20;;;;;;;2.42;1.50;;;;;;;14.01;100.00;95715.53;5002955;28;20037;-58
2022/09/09 03:03:46;;;;;;;5.10;1.73;;;;;;;14.01;100.00;95722.66;5004414;28;20022;-59
2022/09/09 03:06:11;;;;;;;3.10;1.52;;;;;;;14.01;99.89;95717.34;5001417;28;20208;-58
2022/09/09 03:08:37;;;;;;;5.25;1.48;;;;;;;13.97;100.00;95711.56;5001222;28;20122;-58
2022/09/09 03:11:03;;;;;;;7.72;3.25;;;;;;;13.94;100.00;95711.88;5002028;28;20037;-58
2022/09/09 03:13:28;;;;;;;4.88;1.77;;;;;;;13.91;100.00;95712.22;5001946;28;20042;-59
2022/09/09 03:15:54;;;;;;;5.75;2.78;;;;;;;13.88;100.00;95715.19;5004073;28;20033;-58
2022/09/09 03:18:20;;;;;;;7.95;4.53;;;;;;;13.83;100.00;95714.84;5001755;28;20100;-58
2022/09/09 03:20:48;;;;;;;7.88;2.67;;;;;;;13.74;100.00;95706.88;5004645;28;20057;-58
2022/09/09 03:23:14;;;;;;;4.90;2.00;;;;;;;13.72;100.00;95715.97;5001252;28;20119;-58
2022/09/09 03:25:39;;;;;;;2.55;1.73;;;;;;;13.68;100.00;95719.91;5001388;28;20058;-59
2022/09/09 03:28:05;;;;;;;1.70;1.60;;;;;;;13.60;100.00;95720.75;5003392;28;20042;-58
2022/09/09 03:30:30;;;;;;;2.22;1.60;;;;;;;13.57;100.00;95721.88;5005938;28;20030;-59
2022/09/09 03:32:57;;;;;;;5.30;1.55;;;;;;;13.56;100.00;95719.38;5002000;28;20057;-58
2022/09/09 03:35:22;;;;;;;1.75;1.63;;;;;;;13.54;100.00;95721.34;5007989;28;20026;-58
2022/09/09 03:37:48;;;;;;;4.00;1.60;;;;;;;13.46;100.00;95724.78;5003336;28;20025;-59
2022/09/09 03:40:13;;;;;;;5.75;1.88;;;;;;;13.42;100.00;95726.91;5005419;28;20465;-59
2022/09/09 03:42:40;;;;;;;3.40;1.42;;;;;;;13.42;100.00;95737.50;5005826;28;20081;-59
2022/09/09 03:45:08;;;;;;;2.95;1.58;;;;;;;13.37;100.00;95729.19;5007156;28;20088;-58
2022/09/09 03:47:34;;;;;;;3.15;1.60;;;;;;;13.29;100.00;95739.72;5008705;28;20041;-58
2022/09/09 03:50:00;;;;;;;1.88;1.65;;;;;;;13.26;100.00;95737.41;5006784;28;20026;-58
2022/09/09 03:52:26;;;;;;;5.45;2.05;;;;;;;13.26;100.00;95742.69;5003149;28;20052;-59
2022/09/09 03:54:52;;;;;;;1.55;1.45;;;;;;;13.25;100.00;95738.41;4999987;28;20038;-58
2022/09/09 03:57:18;;;;;;;4.03;1.75;;;;;;;13.25;100.00;95738.41;5002529;28;20030;-59
2022/09/09 03:59:44;;;;;;;2.75;1.48;;;;;;;13.25;100.00;95741.03;5010392;28;20030;-58
2022/09/09 04:02:10;;;;;;;6.75;2.20;;;;;;;13.24;100.00;95739.38;5010130;28;20091;-58
2022/09/09 04:04:35;;;;;;;3.15;2.17;;;;;;;13.17;100.00;95731.25;5004594;28;20069;-58
2022/09/09 04:07:01;;;;;;;1.38;1.38;;;;;;;13.17;100.00;95737.38;5009337;28;20532;-59
2022/09/09 04:09:26;;;;;;;4.97;1.92;;;;;;;13.10;100.00;95731.03;5007807;28;20511;-60
2022/09/09 04:11:52;;;;;;;3.72;1.80;;;;;;;13.09;100.00;95729.38;5002726;28;20569;-60
2022/09/09 04:14:19;;;;;;;3.80;1.52;;;;;;;13.09;100.00;95729.38;5005814;28;20413;-60
2022/09/09 04:16:44;;;;;;;1.75;1.40;;;;;;;13.08;100.00;95733.00;5002958;28;20105;-60
2022/09/09 04:19:13;;;;;;;3.58;1.50;;;;;;;13.02;100.00;95733.66;5005783;28;20152;-61
2022/09/09 04:21:42;;;;;;;3.65;1.40;;;;;;;13.03;100.00;95743.22;5003129;28;20033;-62
2022/09/09 04:24:08;;;;;;;1.73;1.63;;;;;;;13.02;100.00;95742.38;5006817;28;20061;-59
2022/09/09 04:26:36;;;;;;;5.43;1.70;;;;;;;13.04;100.00;95742.25;5006217;28;20061;-59
2022/09/09 04:29:03;;;;;;;3.95;1.85;;;;;;;13.11;100.00;95739.81;5006909;28;20100;-61
2022/09/09 04:31:29;;;;;;;5.78;1.80;;;;;;;13.16;100.00;95748.09;5004059;28;20402;-61
2022/09/09 04:33:54;;;;;;;2.80;1.50;;;;;;;13.51;100.00;95745.47;5008952;28;20021;-60
2022/09/09 04:36:19;;;;;;;4.40;1.88;;;;;;;13.32;100.00;95750.00;5007264;28;20034;-60
2022/09/09 04:38:46;;;;;;;4.70;1.60;;;;;;;13.24;100.00;95742.84;5008694;28;20058;-60
2022/09/09 04:41:12;;;;;;;2.83;1.70;;;;;;;13.23;100.00;95735.91;5013948;28;20030;-61
2022/09/09 04:43:39;;;;;;;4.88;1.63;;;;;;;13.19;100.00;95742.50;5008223;28;20033;-60
2022/09/09 04:46:05;;;;;;;4.95;1.88;;;;;;;13.16;100.00;95741.00;5005552;28;20022;-61
2022/09/09 04:48:31;;;;;;;6.18;1.50;;;;;;;13.11;100.00;95739.81;5007604;28;20521;-60
2022/09/09 04:50:59;;;;;;;4.13;1.67;;;;;;;13.05;100.00;95733.34;5004477;28;20057;-61
2022/09/09 04:53:25;;;;;;;3.00;1.60;;;;;;;13.00;100.00;95740.91;4991695;28;20026;-61
2022/09/09 04:56:06;;;;;;;4.88;1.88;;;;;;;13.01;100.00;95735.44;4998131;28;20022;-61
2022/09/09 04:58:32;;;;;;;2.38;1.80;;;;;;;13.03;100.00;95735.31;5007866;28;20033;-60
2022/09/09 05:01:04;;;;;;;6.15;1.75;;;;;;;13.07;100.00;95735.84;5003909;28;20034;-61
2022/09/09 05:03:30;;;;;;;6.72;1.60;;;;;;;13.09;100.00;95732.03;5006458;28;20400;-61
2022/09/09 05:06:05;;;;;;;2.95;1.80;;;;;;;13.11;100.00;95731.88;5006561;28;20030;-61
2022/09/09 05:08:30;;;;;;;;;;;;;;;13.16;100.00;95740.16;5002381;28;20062;-60
2022/09/09 05:10:56;;;;;;;2.50;1.70;;;;;;;13.13;100.00;95740.47;5004694;28;20016;-61
2022/09/09 05:13:22;;;;;;;6.57;1.98;;;;;;;13.12;100.00;95746.75;5011777;28;20030;-61
2022/09/09 05:15:54;;;;;;;4.38;1.85;;;;;;;13.15;100.00;95744.63;5003264;28;20029;-61
2022/09/09 05:18:20;;;;;;;10.85;1.70;;;;;;;13.24;100.00;95742.03;5007848;28;20082;-61
2022/09/09 05:20:45;;;;;;;4.93;1.40;;;;;;;13.38;100.00;95732.66;5006290;28;20111;-61
2022/09/09 05:23:13;;;;;;;1.60;1.50;;;;;;;13.38;100.00;95744.09;5009042;28;20026;-61
2022/09/09 05:25:40;;;;;;;4.63;1.60;;;;;;;13.25;100.00;95747.13;5007748;28;20049;-61
2022/09/09 05:28:07;;;;;;;2.28;1.83;;;;;;;13.21;100.00;95748.44;5002359;28;20167;-61
2022/09/09 05:30:32;;;;;;;1.70;1.60;;;;;;;13.20;100.00;95745.97;5005669;28;20033;-61
2022/09/09 05:32:57;;;;;;;2.03;1.73;;;;;;;13.17;100.00;95747.94;4992511;28;20034;-61
2022/09/09 05:35:23;;;;;;;6.25;1.90;;;;;;;13.12;100.00;95750.22;5004731;28;20034;-61
2022/09/09 05:37:48;;;;;;;4.15;1.90;;;;;;;13.11;100.00;95759.13;5009917;28;20101;-61
2022/09/09 05:40:14;;;;;;;2.78;1.70;;;;;;;13.16;100.00;95763.97;5009456;28;20028;-61
2022/09/09 05:42:40;;;;;;;3.72;1.80;;;;;;;13.19;100.00;95766.28;5007932;28;20025;-61
2022/09/09 05:45:07;;;;;;;2.97;1.80;;;;;;;13.15;100.00;95771.06;5003443;28;20037;-61
2022/09/09 05:47:33;;;;;;;2.10;1.80;;;;;;;13.18;100.00;95770.75;5000926;28;20393;-61
2022/09/09 05:49:59;;;;;;;8.18;1.95;;;;;;;13.26;100.00;95772.63;5004069;28;20029;-61
2022/09/09 05:52:26;;;;;;;2.38;1.70;;;;;;;13.36;100.00;95777.78;5002865;28;20038;-61
2022/09/09 05:54:51;;;;;;;4.50;1.85;;;;;;;13.35;100.00;95778.75;4998667;28;20030;-61
2022/09/09 05:57:17;;;;;;;1.75;1.65;;;;;;;13.37;100.00;95784.72;5009444;28;20092;-61
2022/09/09 05:59:42;;;;;;;4.53;2.30;;;;;;;13.40;100.00;95784.44;5003843;28;20046;-60
2022/09/09 06:02:09;;;;;;;2.92;1.90;;;;;;;13.51;100.00;95786.00;5005260;28;20041;-61
2022/09/09 06:04:34;;;;;;;8.23;2.03;;;;;;;13.58;100.00;95786.16;5004589;28;20030;-61
2022/09/09 06:07:00;;;;;;;4.43;2.40;;;;;;;13.61;100.00;95791.16;5003926;28;20044;-60
2022/09/09 06:09:25;;;;;;;2.55;2.28;;;;;;;13.63;100.00;95783.06;5000948;28;20046;-61
2022/09/09 06:11:50;;;;;;;3.97;2.20;;;;;;;13.68;100.00;95781.59;5006873;28;20041;-61
2022/09/09 06:14:17;;;;;;;3.70;2.50;;;;;;;13.73;100.00;95786.44;4998920;28;20030;-60
2022/09/09 06:16:43;;;;;;;4.35;3.28;;;;;;;13.71;100.00;95786.56;5001525;28;20068;-60
2022/09/09 06:19:09;;;;;;;2.80;2.30;;;;;;;13.68;100.00;95781.59;5002790;28;20034;-61
2022/09/09 06:21:40;;;;;;;2.92;2.60;;;;;;;13.66;100.00;95786.22;5005634;28;20034;-60
2022/09/09 06:24:07;;;;;;;3.15;2.10;;;;;;;13.67;100.00;95785.25;5005158;28;20028;-60
2022/09/09 06:26:34;;;;;;;3.08;2.50;;;;;;;13.66;100.00;95786.22;5007379;28;20497;-60
2022/09/09 06:29:03;;;;;;;3.25;2.05;;;;;;;13.61;100.00;95785.88;5007634;28;20429;-61
2022/09/09 06:31:30;;;;;;;8.95;1.92;;;;;;;13.58;100.00;95786.16;5004924;28;20113;-60
2022/09/09 06:33:57;;;;;;;5.78;1.95;;;;;;;13.59;100.00;95790.47;5004309;28;20065;-60
2022/09/09 06:36:25;;;;;;;6.90;1.92;;;;;;;13.60;100.00;95790.31;5000862;28;20038;-60
2022/09/09 06:38:51;;;;;;;2.42;2.05;;;;;;;13.59;100.00;95787.81;5008021;28;20413;-60
2022/09/09 06:41:19;;;;;;;2.35;1.80;;;;;;;13.58;100.00;95784.38;4998612;28;20027;-60
2022/09/09 06:43:45;;;;;;;5.18;2.60;;;;;;;13.57;100.00;95782.72;4998016;28;20057;-60
2022/09/09 06:46:14;;;;;;;3.22;2.63;;;;;;;13.58;100.00;95784.38;5001267;28;20555;-59
2022/09/09 06:48:41;;;;;;;2.58;2.20;;;;;;;13.61;100.00;95772.66;5006383;28;20104;-60
2022/09/09 06:51:09;;;;;;;6.20;2.10;;;;;;;13.81;100.00;95782.94;5001504;28;20022;-60
2022/09/09 06:53:36;;;;;;;5.13;2.08;;;;;;;13.99;100.00;95782.88;5005884;28;20029;-60
2022/09/09 06:56:10;;;;;;;3.60;1.90;;;;;;;14.49;98.82;95775.84;5004134;28;20057;-60
2022/09/09 06:58:45;;;;;;;7.28;2.40;;;;;;;14.90;97.65;95777.69;5006284;28;20072;-60
2022/09/09 07:01:13;;;;;;;3.55;2.00;;;;;;;15.29;95.72;95779.63;5007745;28;20453;-60
2022/09/09 07:03:40;;;;;;;3.83;2.42;;;;;;;15.66;94.40;95782.66;5008031;28;20026;-60
2022/09/09 07:06:07;;;;;;;7.28;3.40;;;;;;;15.99;93.60;95785.19;5008218;28;20030;-60
2022/09/09 07:08:33;;;;;;;4.03;2.97;;;;;;;16.35;90.30;95788.34;5007740;28;20045;-60
2022/09/09 07:11:04;;;;;;;8.52;1.80;;;;;;;16.68;89.45;95788.09;5009992;28;20038;-60
2022/09/09 07:13:31;;;;;;;3.83;2.88;;;;;;;17.25;85.55;95805.44;5010340;28;20029;-60
2022/09/09 07:16:06;;;;;;;5.45;3.90;;;;;;;17.74;78.85;95804.09;5011792;28;20053;-60
2022/09/09 07:18:33;;;;;;;2.40;2.20;;;;;;;18.19;79.36;95800.56;5003056;28;20015;-61
2022/09/09 07:20:59;;;;;;;3.53;2.22;;;;;;;18.43;78.51;95802.06;5008704;28;20452;-61
2022/09/09 07:23:24;;;;;;;4.43;2.10;;;;;;;18.74;76.42;95808.13;4998915;28;20026;-60
2022/09/09 07:25:51;;;;;;;3.25;1.70;;;;;;;18.88;75.88;95809.06;5006852;28;20029;-61
2022/09/09 07:28:17;;;;;;;4.40;1.60;;;;;;;18.80;73.94;95807.34;5006526;28;20029;-60
2022/09/09 07:30:43;;;;;;;1.80;1.70;;;;;;;18.75;75.08;95810.59;5000883;28;20026;-61
2022/09/09 07:33:12;;;;;;;1.52;1.30;;;;;;;18.36;73.78;95800.34;5003399;28;20044;-61
2022/09/09 07:35:38;;;;;;;4.57;2.17;;;;;;;17.90;74.55;95804.91;5006222;28;20437;-61
2022/09/09 07:38:06;;;;;;;3.28;1.88;;;;;;;17.63;77.87;95804.56;5005526;28;20116;-60
2022/09/09 07:40:33;;;;;;;4.93;1.83;;;;;;;17.70;78.03;95799.31;5007818;28;20056;-61
2022/09/09 07:42:59;;;;;;;3.97;1.77;;;;;;;17.79;77.90;95805.34;5009759;28;20026;-60
2022/09/09 07:45:24;;;;;;;4.75;2.55;;;;;;;17.75;77.95;95808.41;5009046;28;20018;-61
2022/09/09 07:47:50;;;;;;;2.88;2.05;;;;;;;17.92;76.58;95807.41;5008463;28;20029;-61
2022/09/09 07:50:16;;;;;;;4.95;1.67;;;;;;;18.13;76.45;95807.50;5000853;28;20032;-60
2022/09/09 07:52:41;;;;;;;1.52;1.42;;;;;;;18.41;74.56;95805.94;5003314;28;20121;-60
2022/09/09 07:55:07;;;;;;;4.43;1.65;;;;;;;18.38;74.13;95815.16;5006515;28;20018;-61
2022/09/09 07:57:32;;;;;;;2.15;1.73;;;;;;;18.25;74.75;95821.16;5007317;28;20026;-60
2022/09/09 07:59:57;;;;;;;5.25;1.70;;;;;;;18.24;74.59;95821.34;5006016;28;20029;-61
2022/09/09 08:02:25;;;;;;;3.15;1.42;;;;;;;18.43;73.45;95818.06;5001026;28;20189;-61
2022/09/09 08:04:51;;;;;;;1.95;1.60;;;;;;;18.71;72.05;95828.00;4996955;28;20018;-61
2022/09/09 08:07:17;;;;;;;3.25;1.98;;;;;;;19.08;70.64;95827.13;4981639;28;20026;-62
2022/09/09 08:09:43;;;;;;;4.20;1.48;;;;;;;18.88;72.05;95833.88;5003854;28;20034;-61
2022/09/09 08:12:10;;;;;;;3.70;1.67;;;;;;;18.86;71.73;95827.13;5005127;28;20109;-61
2022/09/09 08:14:36;;;;;;;4.13;1.50;;;;;;;18.88;70.87;95830.41;5005296;28;20113;-61
2022/09/09 08:17:01;;;;;;;3.00;1.83;;;;;;;18.88;72.00;95830.41;5003317;28;20529;-62
2022/09/09 08:19:29;;;;;;;4.60;1.80;;;;;;;18.85;72.00;95844.94;5009022;28;20025;-61
2022/09/09 08:21:54;;;;;;;4.20;1.30;;;;;;;18.81;70.54;95835.69;5001561;28;20026;-61
2022/09/09 08:24:20;;;;;;;7.40;1.45;;;;;;;18.79;70.69;95837.72;4994123;28;20971;-61
2022/09/09 08:26:49;;;;;;;2.70;1.50;;;;;;;19.24;69.39;95834.88;5007839;28;20030;-61
2022/09/09 08:29:15;;;;;;;4.28;1.65;;;;;;;19.68;67.99;95840.91;4998220;28;20412;-61
2022/09/09 08:31:44;;;;;;;3.22;1.83;;;;;;;20.21;65.92;95828.06;4998331;28;20026;-61
2022/09/09 08:34:10;;;;;;;2.80;1.30;;;;;;;20.82;63.00;95834.47;5002016;28;20578;-61
2022/09/09 08:36:40;;;;;;;1.77;1.67;;;;;;;20.68;64.07;95830.91;5006163;28;20030;-61
2022/09/09 08:39:08;;;;;;;7.60;2.15;;;;;;;20.28;61.98;95826.25;5008836;28;20033;-61
2022/09/09 08:42:09;;;;;;;8.68;3.42;;;;;;;19.62;63.94;95831.03;5009824;28;20034;-61
2022/09/09 08:44:34;;;;;;;2.88;1.80;;;;;;;19.51;65.58;95829.72;5004537;28;20029;-63
2022/09/09 08:47:02;;;;;;;7.35;3.63;;;;;;;20.09;63.63;95830.50;4992818;28;20516;-64
2022/09/09 08:49:31;;;;;;;3.70;2.78;;;;;;;20.27;62.99;95827.25;5006340;28;20030;-64
2022/09/09 08:51:57;;;;;;;2.60;1.77;;;;;;;20.44;63.39;95819.72;4986483;28;20034;-63
2022/09/09 08:54:23;;;;;;;4.10;2.17;;;;;;;20.49;62.91;95824.47;5006748;28;20060;-64
2022/09/09 08:56:49;;;;;;;4.30;1.80;;;;;;;20.62;61.37;95827.19;5008763;28;20014;-64
2022/09/09 08:59:19;;;;;;;1.65;1.50;;;;;;;20.91;62.63;95830.53;5001899;28;20486;-62
2022/09/09 09:01:55;;;;;;;3.50;1.70;;;;;;;21.03;59.55;95830.75;5005363;28;20080;-63
2022/09/09 09:04:49;;;;;;;1.45;1.17;;;;;;;20.74;59.16;95827.41;5006200;28;20494;-64
2022/09/09 09:07:23;;;;;;;1.98;1.27;;;;;;;20.59;61.57;95825.72;4980011;28;20038;-63
2022/09/09 09:10:00;;;;;;;1.48;1.38;;;;;;;21.00;58.84;95825.81;5005136;28;20034;-64
2022/09/09 09:12:35;;;;;;;2.78;1.30;;;;;;;20.81;60.12;95830.94;4998195;28;20037;-63
2022/09/09 09:15:00;;;;;;;1.50;1.40;;;;;;;20.42;61.69;95822.59;5004898;28;20030;-64
2022/09/09 09:17:31;;;;;;;3.20;1.63;;;;;;;20.16;60.22;95820.63;4999551;28;20036;-65
2022/09/09 09:19:58;;;;;;;3.63;1.52;;;;;;;19.70;62.78;95824.72;5005351;28;20042;-65
2022/09/09 09:22:48;;;;;;;3.75;1.30;;;;;;;19.61;61.68;95829.38;5005932;28;20045;-64
2022/09/09 09:25:20;;;;;;;2.92;1.67;;;;;;;19.53;62.73;95832.19;4998123;28;20057;-64
2022/09/09 09:28:05;;;;;;;1.67;1.40;;;;;;;19.88;61.37;95834.88;5000740;28;20030;-65
2022/09/09 09:30:52;;;;;;;;;;;;;;;19.57;61.22;95833.47;5007976;28;20109;-64
2022/09/09 09:33:22;;;;;;;1.60;1.50;;;;;;;19.32;61.72;95828.53;5006316;28;20396;-64
2022/09/09 09:35:51;;;;;;;3.97;1.30;;;;;;;19.18;62.68;95831.13;5004103;28;20030;-63
2022/09/09 09:38:24;;;;;;;4.45;1.60;;;;;;;19.83;58.23;95840.00;5006583;28;20058;-63
2022/09/09 09:40:55;;;;;;;2.15;1.80;;;;;;;19.33;60.73;95830.19;5004107;28;20393;-63
2022/09/09 09:43:26;;;;;;;2.58;1.42;;;;;;;19.36;62.72;95829.81;5007048;28;20030;-63
2022/09/09 09:45:51;;;;;;;2.67;1.30;;;;;;;19.59;58.68;95831.41;4986572;28;20033;-64
2022/09/09 09:48:17;;;;;;;7.28;1.50;;;;;;;19.59;57.85;95834.09;5006255;28;20077;-63
2022/09/09 09:50:55;;;;;;;2.50;1.63;;;;;;;19.36;61.83;95832.50;5003972;28;20030;-63
2022/09/09 09:53:26;;;;;;;1.55;1.38;;;;;;;19.63;59.20;95823.81;4991311;28;20888;-64
2022/09/09 09:56:01;;;;;;;2.47;1.38;;;;;;;19.89;58.03;95829.34;5003610;28;20402;-64
2022/09/09 09:58:32;;;;;;;2.63;1.20;;;;;;;19.93;57.65;95821.78;5008246;28;20018;-58
2022/09/09 10:00:57;;;;;;;1.98;1.40;;;;;;;19.93;56.16;95824.44;5005592;28;20034;-59
2022/09/09 10:03:31;;;;;;;3.33;1.90;;;;;;;19.84;57.51;95822.94;5003310;28;20029;-58
2022/09/09 10:05:57;;;;;;;1.53;1.30;;;;;;;20.26;55.63;95820.28;5006524;28;20041;-58
2022/09/09 10:08:27;;;;;;;1.77;1.38;;;;;;;20.12;54.81;95814.06;5003590;28;20080;-58
2022/09/09 10:11:10;;;;;;;2.20;1.48;;;;;;;20.21;56.76;95814.72;5004676;28;20116;-57
2022/09/09 10:14:17;;;;;;;2.58;1.70;;;;;;;20.48;56.57;95812.94;5000036;28;20674;-59
2022/09/09 10:17:09;;;;;;;1.45;1.30;;;;;;;20.60;56.12;95802.50;5001245;28;20041;-58
2022/09/09 10:19:36;;;;;;;3.45;1.55;;;;;;;20.75;56.30;95804.97;5004309;28;20037;-59
2022/09/09 10:22:20;;;;;;;2.50;1.55;;;;;;;20.86;53.46;95791.00;5004986;28;20541;-59
2022/09/09 10:25:11;;;;;;;2.55;1.58;;;;;;;21.17;51.78;95789.59;5004384;28;20033;-58
2022/09/09 10:27:46;;;;;;;2.80;1.40;;;;;;;20.93;51.43;95800.94;5003894;28;20124;-59
2022/09/09 10:30:14;;;;;;;1.60;1.30;;;;;;;21.00;53.64;95794.56;5001158;28;20112;-58
2022/09/09 10:32:43;;;;;;;1.58;1.40;;;;;;;21.35;49.55;95790.84;5000964;28;20084;-59
2022/09/09 10:35:11;;;;;;;2.10;1.35;;;;;;;21.36;50.45;95787.13;5000833;28;20041;-58
2022/09/09 10:38:13;;;;;;;2.40;1.13;;;;;;;21.37;48.02;95783.41;4985225;28;20026;-59
2022/09/09 10:40:59;;;;;;;1.95;1.42;;;;;;;21.36;51.26;95781.75;5001109;28;20041;-59
2022/09/09 10:43:39;;;;;;;;;;;;;;;21.97;47.67;95787.00;5007505;28;20119;-59
2022/09/09 10:46:28;;;;;;;3.25;1.13;;;;;;;22.29;47.10;95785.22;4987821;28;19917;-58
2022/09/09 10:49:27;;;;;;;1.92;1.20;;;;;;;21.83;45.93;95787.03;5003195;28;20046;-59
2022/09/09 10:51:58;;;;;;;3.58;0.98;;;;;;;21.97;46.61;95774.41;5004823;28;20583;-59
2022/09/09 10:54:33;;;;;;;1.15;0.98;;;;;;;22.20;46.53;95778.44;5005911;28;20505;-58
2022/09/09 10:57:05;;;;;;;1.67;0.75;;;;;;;22.40;46.67;95788.25;5006779;28;20121;-58
2022/09/09 10:59:40;;;;;;;2.25;1.27;;;;;;;22.60;44.27;95783.63;5007266;28;20073;-59
2022/09/09 11:02:29;;;;;;;1.23;1.13;;;;;;;22.36;44.18;95779.81;5008073;28;20121;-59
2022/09/09 11:05:06;;;;;;;2.78;1.23;;;;;;;22.82;44.70;95777.91;5007387;28;20597;-59
2022/09/09 11:07:50;;;;;;;1.08;0.98;;;;;;;23.10;41.76;95774.00;5007294;28;20025;-59
2022/09/09 11:10:24;;;;;;;1.88;0.88;;;;;;;23.08;42.92;95767.19;5002170;28;20108;-59
2022/09/09 11:12:53;;;;;;;2.20;1.13;;;;;;;23.14;43.04;95769.00;5003597;28;20038;-59
2022/09/09 11:15:28;;;;;;;1.35;1.25;;;;;;;23.67;41.43;95762.31;5004857;28;20037;-59
2022/09/09 11:17:57;;;;;;;2.10;1.15;;;;;;;24.12;41.04;95768.47;4996934;28;20527;-59
2022/09/09 11:20:25;;;;;;;1.35;1.25;;;;;;;24.32;40.76;95762.84;5007895;28;20476;-59
2022/09/09 11:23:04;;;;;;;2.42;1.42;;;;;;;23.95;41.51;95763.66;5006066;28;20084;-59
2022/09/09 11:25:36;;;;;;;1.30;1.20;;;;;;;24.24;39.93;95760.44;5000047;28;20064;-59
2022/09/09 11:28:22;;;;;;;1.70;1.10;;;;;;;24.49;38.59;95754.94;5005348;28;20439;-59
2022/09/09 11:31:15;;;;;;;2.38;1.10;;;;;;;24.46;38.67;95760.78;5006702;28;20419;-58
2022/09/09 11:34:20;;;;;;;1.27;0.98;;;;;;;24.15;39.96;95746.50;5006117;28;20109;-58
2022/09/09 11:37:04;;;;;;;2.22;0.90;;;;;;;24.35;40.28;95750.78;5002083;28;20025;-58
2022/09/09 11:39:30;;;;;;;1.10;1.00;;;;;;;25.13;37.54;95746.34;5003734;28;20095;-58
2022/09/09 11:42:23;;;;;;;6.65;1.00;;;;;;;24.64;39.18;95745.59;5006391;28;20460;-56
2022/09/09 11:44:50;;;;;;;1.52;1.23;;;;;;;25.07;37.44;95752.63;5002321;28;20454;-56
2022/09/09 11:47:22;;;;;;;1.98;0.85;;;;;;;25.42;35.71;95753.69;5000990;28;20051;-58
2022/09/09 11:49:48;;;;;;;1.92;1.17;;;;;;;24.94;38.18;95752.88;5004397;28;20152;-56